createdAt,value
2019-04-06T00:00:01.786Z,1007.03
2019-04-06T00:01:01.752Z,1007.04
2019-04-06T00:02:01.726Z,1007.07
2019-04-06T00:03:01.695Z,1006.99
2019-04-06T00:04:01.664Z,1006.98
2019-04-06T00:05:01.632Z,1007.01
2019-04-06T00:06:01.607Z,1007.04
2019-04-06T00:07:01.578Z,1007.02
2019-04-06T00:08:01.542Z,1007.01
2019-04-06T00:09:01.512Z,1007.02
2019-04-06T00:10:01.486Z,1007.02
2019-04-06T00:11:01.496Z,1006.95
2019-04-06T00:12:01.421Z,1006.93
2019-04-06T00:13:01.391Z,1006.89
2019-04-06T00:14:01.360Z,1006.84
2019-04-06T00:15:01.329Z,1006.78
2019-04-06T00:16:01.300Z,1006.77
2019-04-06T00:17:01.268Z,1006.76
2019-04-06T00:18:01.241Z,1006.79
2019-04-06T00:19:01.207Z,1006.78
2019-04-06T00:20:01.183Z,1006.78
2019-04-06T00:21:01.145Z,1006.80
2019-04-06T00:22:01.114Z,1006.84
2019-04-06T00:23:01.086Z,1006.82
2019-04-06T00:24:01.054Z,1006.82
2019-04-06T00:25:01.024Z,1006.84
2019-04-06T00:26:01.045Z,1006.88
2019-04-06T00:27:00.968Z,1006.90
2019-04-06T00:28:00.933Z,1006.87
2019-04-06T00:29:00.903Z,1006.84
2019-04-06T00:30:00.882Z,1006.87
2019-04-06T00:31:00.842Z,1006.88
2019-04-06T00:32:00.812Z,1006.85
2019-04-06T00:33:00.780Z,1006.88
2019-04-06T00:34:00.750Z,1006.86
2019-04-06T00:35:00.721Z,1006.89
2019-04-06T00:36:00.690Z,1006.90
2019-04-06T00:37:00.677Z,1006.87
2019-04-06T00:38:00.630Z,1006.92
2019-04-06T00:39:00.598Z,1006.93
2019-04-06T00:40:00.568Z,1006.91
2019-04-06T00:41:00.536Z,1006.93
2019-04-06T00:42:00.576Z,1006.98
2019-04-06T00:43:00.477Z,1006.96
2019-04-06T00:44:00.445Z,1006.98
2019-04-06T00:45:00.414Z,1006.98
2019-04-06T00:46:00.385Z,1006.93
2019-04-06T00:47:00.354Z,1006.91
2019-04-06T00:48:00.324Z,1006.86
2019-04-06T00:49:00.292Z,1006.90
2019-04-06T00:50:00.264Z,1006.91
2019-04-06T00:51:00.232Z,1006.92
2019-04-06T00:52:00.214Z,1006.97
2019-04-06T00:53:00.170Z,1006.98
2019-04-06T00:54:00.139Z,1006.97
2019-04-06T00:55:00.111Z,1006.96
2019-04-06T00:56:00.078Z,1006.94
2019-04-06T00:57:00.048Z,1006.94
2019-04-06T00:58:00.111Z,1006.88
2019-04-06T00:58:59.985Z,1006.98
2019-04-06T00:59:59.954Z,1006.97
2019-04-06T01:00:59.924Z,1007.00
2019-04-06T01:01:59.927Z,1006.98
2019-04-06T01:02:59.863Z,1007.04
2019-04-06T01:03:59.832Z,1006.98
2019-04-06T01:04:59.804Z,1007.03
2019-04-06T01:05:59.771Z,1007.02
2019-04-06T01:06:59.743Z,1007.00
2019-04-06T01:07:59.710Z,1007.05
2019-04-06T01:08:59.678Z,1007.02
2019-04-06T01:09:59.648Z,1007.05
2019-04-06T01:10:59.619Z,1007.02
2019-04-06T01:11:59.587Z,1007.00
2019-04-06T01:12:59.554Z,1007.00
2019-04-06T01:13:59.582Z,1007.02
2019-04-06T01:14:59.493Z,1007.01
2019-04-06T01:15:59.463Z,1007.02
2019-04-06T01:16:59.432Z,1006.97
2019-04-06T01:17:59.401Z,1006.96
2019-04-06T01:18:59.369Z,1006.95
2019-04-06T01:19:59.341Z,1006.95
2019-04-06T01:20:59.308Z,1006.94
2019-04-06T01:21:59.277Z,1006.93
2019-04-06T01:22:59.246Z,1006.92
2019-04-06T01:23:59.218Z,1006.94
2019-04-06T01:24:59.184Z,1006.93
2019-04-06T01:26:07.174Z,1006.93
2019-04-06T01:26:59.123Z,1006.93
2019-04-06T01:27:59.094Z,1006.90
2019-04-06T01:28:59.059Z,1006.89
2019-04-06T01:29:59.030Z,1006.89
2019-04-06T01:30:59.001Z,1006.91
2019-04-06T01:31:58.972Z,1006.93
2019-04-06T01:32:58.936Z,1006.90
2019-04-06T01:33:59.389Z,1006.87
2019-04-06T01:34:58.876Z,1006.88
2019-04-06T01:35:58.940Z,1006.86
2019-04-06T01:36:58.813Z,1006.91
2019-04-06T01:37:58.783Z,1006.91
2019-04-06T01:38:58.751Z,1006.90
2019-04-06T01:39:58.722Z,1006.88
2019-04-06T01:40:58.689Z,1006.86
2019-04-06T01:41:58.657Z,1006.88
2019-04-06T01:42:58.628Z,1006.85
2019-04-06T01:43:58.598Z,1006.84
2019-04-06T01:44:58.566Z,1006.87
2019-04-06T01:45:58.536Z,1006.89
2019-04-06T01:46:58.505Z,1006.86
2019-04-06T01:47:58.472Z,1006.88
2019-04-06T01:48:58.461Z,1006.92
2019-04-06T01:49:58.412Z,1006.90
2019-04-06T01:50:58.379Z,1006.88
2019-04-06T01:51:58.349Z,1006.86
2019-04-06T01:52:58.317Z,1006.85
2019-04-06T01:53:58.287Z,1006.87
2019-04-06T01:54:59.206Z,1006.88
2019-04-06T01:55:58.225Z,1006.89
2019-04-06T01:56:58.192Z,1006.91
2019-04-06T01:57:58.162Z,1006.91
2019-04-06T01:58:58.132Z,1006.93
2019-04-06T01:59:58.101Z,1006.89
2019-04-06T02:00:58.138Z,1006.91
2019-04-06T02:01:58.044Z,1006.91
2019-04-06T02:02:58.007Z,1006.90
2019-04-06T02:03:58.069Z,1006.92
2019-04-06T02:04:57.946Z,1006.92
2019-04-06T02:05:57.955Z,1006.90
2019-04-06T02:06:57.881Z,1006.92
2019-04-06T02:07:57.855Z,1006.90
2019-04-06T02:08:57.821Z,1006.93
2019-04-06T02:09:57.790Z,1006.90
2019-04-06T02:10:57.759Z,1006.90
2019-04-06T02:11:57.728Z,1006.92
2019-04-06T02:12:57.698Z,1006.94
2019-04-06T02:13:57.667Z,1006.90
2019-04-06T02:14:57.636Z,1006.89
2019-04-06T02:15:57.606Z,1006.91
2019-04-06T02:16:57.659Z,1006.88
2019-04-06T02:17:57.542Z,1006.90
2019-04-06T02:18:57.525Z,1006.92
2019-04-06T02:19:57.479Z,1006.87
2019-04-06T02:20:57.447Z,1006.84
2019-04-06T02:21:57.422Z,1006.85
2019-04-06T02:22:57.386Z,1006.83
2019-04-06T02:23:57.358Z,1006.84
2019-04-06T02:24:57.331Z,1006.82
2019-04-06T02:25:57.293Z,1006.78
2019-04-06T02:26:57.364Z,1006.83
2019-04-06T02:27:57.231Z,1006.80
2019-04-06T02:28:57.201Z,1006.79
2019-04-06T02:29:57.169Z,1006.79
2019-04-06T02:30:57.138Z,1006.79
2019-04-06T02:31:57.110Z,1006.83
2019-04-06T02:32:57.075Z,1006.90
2019-04-06T02:33:57.097Z,1006.88
2019-04-06T02:34:57.013Z,1006.90
2019-04-06T02:35:56.989Z,1006.93
2019-04-06T02:36:56.954Z,1006.93
2019-04-06T02:37:56.919Z,1006.91
2019-04-06T02:38:56.887Z,1006.89
2019-04-06T02:39:56.863Z,1006.87
2019-04-06T02:40:56.831Z,1006.89
2019-04-06T02:41:56.816Z,1006.87
2019-04-06T02:42:56.768Z,1006.89
2019-04-06T02:43:56.732Z,1006.87
2019-04-06T02:44:56.700Z,1006.89
2019-04-06T02:45:56.670Z,1006.86
2019-04-06T02:46:56.638Z,1006.85
2019-04-06T02:47:56.619Z,1006.86
2019-04-06T02:48:56.576Z,1006.87
2019-04-06T02:49:56.722Z,1006.87
2019-04-06T02:50:56.514Z,1006.84
2019-04-06T02:51:56.483Z,1006.88
2019-04-06T02:52:56.450Z,1006.87
2019-04-06T02:53:56.510Z,1006.84
2019-04-06T02:54:56.399Z,1006.88
2019-04-06T02:55:56.358Z,1006.85
2019-04-06T02:56:56.324Z,1006.81
2019-04-06T02:57:56.309Z,1006.82
2019-04-06T02:58:56.263Z,1006.85
2019-04-06T02:59:56.231Z,1006.85
2019-04-06T03:00:56.398Z,1006.82
2019-04-06T03:01:56.194Z,1006.82
2019-04-06T03:02:56.137Z,1006.83
2019-04-06T03:03:56.105Z,1006.80
2019-04-06T03:04:56.074Z,1006.73
2019-04-06T03:05:56.045Z,1006.76
2019-04-06T03:06:56.011Z,1006.70
2019-04-06T03:07:55.984Z,1006.71
2019-04-06T03:08:55.950Z,1006.68
2019-04-06T03:09:55.917Z,1006.69
2019-04-06T03:10:55.886Z,1006.78
2019-04-06T03:11:55.858Z,1006.81
2019-04-06T03:12:55.822Z,1006.80
2019-04-06T03:13:55.795Z,1006.81
2019-04-06T03:14:55.960Z,1006.74
2019-04-06T03:15:55.746Z,1006.74
2019-04-06T03:16:55.698Z,1006.78
2019-04-06T03:17:55.667Z,1006.77
2019-04-06T03:18:55.636Z,1006.83
2019-04-06T03:19:55.610Z,1006.81
2019-04-06T03:20:55.574Z,1006.86
2019-04-06T03:21:55.611Z,1006.89
2019-04-06T03:22:55.512Z,1006.89
2019-04-06T03:23:55.483Z,1006.90
2019-04-06T03:24:55.575Z,1006.86
2019-04-06T03:25:55.423Z,1006.83
2019-04-06T03:27:01.788Z,1006.80
2019-04-06T03:27:55.354Z,1006.81
2019-04-06T03:28:55.337Z,1006.82
2019-04-06T03:29:58.255Z,1006.84
2019-04-06T03:30:55.500Z,1006.83
2019-04-06T03:31:55.301Z,1006.87
2019-04-06T03:32:55.195Z,1006.89
2019-04-06T03:33:55.260Z,1006.87
2019-04-06T03:34:55.130Z,1006.89
2019-04-06T03:35:55.101Z,1006.83
2019-04-06T03:36:55.092Z,1006.81
2019-04-06T03:37:55.041Z,1006.79
2019-04-06T03:38:55.022Z,1006.79
2019-04-06T03:39:54.975Z,1006.83
2019-04-06T03:40:54.943Z,1006.78
2019-04-06T03:41:54.912Z,1006.77
2019-04-06T03:42:54.880Z,1006.74
2019-04-06T03:43:54.850Z,1006.80
2019-04-06T03:44:54.815Z,1006.84
2019-04-06T03:45:54.785Z,1006.80
2019-04-06T03:46:54.754Z,1006.75
2019-04-06T03:47:54.773Z,1006.77
2019-04-06T03:48:54.699Z,1006.81
2019-04-06T03:49:54.658Z,1006.79
2019-04-06T03:50:54.631Z,1006.76
2019-04-06T03:51:54.600Z,1006.74
2019-04-06T03:52:54.750Z,1006.73
2019-04-06T03:53:54.534Z,1006.80
2019-04-06T03:54:54.502Z,1006.76
2019-04-06T03:55:54.470Z,1006.78
2019-04-06T03:56:54.438Z,1006.75
2019-04-06T03:57:54.415Z,1006.74
2019-04-06T03:58:54.377Z,1006.71
2019-04-06T03:59:54.347Z,1006.70
2019-04-06T04:00:54.471Z,1006.67
2019-04-06T04:01:54.280Z,1006.68
2019-04-06T04:02:54.248Z,1006.70
2019-04-06T04:03:54.590Z,1006.70
2019-04-06T04:04:54.186Z,1006.69
2019-04-06T04:05:54.154Z,1006.71
2019-04-06T04:06:54.124Z,1006.69
2019-04-06T04:07:54.094Z,1006.70
2019-04-06T04:08:54.060Z,1006.68
2019-04-06T04:09:54.035Z,1006.67
2019-04-06T04:10:54.017Z,1006.62
2019-04-06T04:11:53.972Z,1006.60
2019-04-06T04:12:53.941Z,1006.57
2019-04-06T04:13:53.904Z,1006.51
2019-04-06T04:14:53.891Z,1006.52
2019-04-06T04:15:56.757Z,1006.50
2019-04-06T04:16:54.050Z,1006.54
2019-04-06T04:17:53.777Z,1006.50
2019-04-06T04:18:53.742Z,1006.48
2019-04-06T04:19:53.713Z,1006.49
2019-04-06T04:20:53.680Z,1006.45
2019-04-06T04:21:53.722Z,1006.49
2019-04-06T04:22:53.618Z,1006.56
2019-04-06T04:23:53.591Z,1006.59
2019-04-06T04:24:53.691Z,1006.57
2019-04-06T04:25:53.521Z,1006.59
2019-04-06T04:26:53.492Z,1006.52
2019-04-06T04:27:53.458Z,1006.45
2019-04-06T04:28:53.675Z,1006.47
2019-04-06T04:29:53.514Z,1006.44
2019-04-06T04:30:53.383Z,1006.46
2019-04-06T04:31:53.332Z,1006.43
2019-04-06T04:32:53.301Z,1006.35
2019-04-06T04:33:53.271Z,1006.35
2019-04-06T04:34:53.238Z,1006.34
2019-04-06T04:35:53.214Z,1006.37
2019-04-06T04:36:53.304Z,1006.43
2019-04-06T04:37:53.143Z,1006.46
2019-04-06T04:38:53.112Z,1006.42
2019-04-06T04:39:53.363Z,1006.53
2019-04-06T04:40:53.294Z,1006.53
2019-04-06T04:41:53.018Z,1006.50
2019-04-06T04:42:52.988Z,1006.54
2019-04-06T04:43:52.955Z,1006.50
2019-04-06T04:44:52.926Z,1006.52
2019-04-06T04:45:52.890Z,1006.52
2019-04-06T04:46:52.869Z,1006.53
2019-04-06T04:47:52.827Z,1006.57
2019-04-06T04:48:52.806Z,1006.64
2019-04-06T04:49:52.764Z,1006.70
2019-04-06T04:50:52.731Z,1006.71
2019-04-06T04:51:52.702Z,1006.69
2019-04-06T04:52:52.667Z,1006.70
2019-04-06T04:53:52.759Z,1006.68
2019-04-06T04:54:52.607Z,1006.75
2019-04-06T04:55:52.575Z,1006.75
2019-04-06T04:56:52.727Z,1006.78
2019-04-06T04:57:52.510Z,1006.75
2019-04-06T04:58:52.482Z,1006.73
2019-04-06T04:59:52.450Z,1006.72
2019-04-06T05:00:52.416Z,1006.71
2019-04-06T05:01:52.742Z,1006.71
2019-04-06T05:02:52.354Z,1006.68
2019-04-06T05:03:52.325Z,1006.73
2019-04-06T05:04:52.293Z,1006.71
2019-04-06T05:05:52.259Z,1006.77
2019-04-06T05:06:52.230Z,1006.75
2019-04-06T05:07:52.198Z,1006.72
2019-04-06T05:08:52.167Z,1006.76
2019-04-06T05:09:52.283Z,1006.80
2019-04-06T05:10:52.107Z,1006.84
2019-04-06T05:11:52.079Z,1006.86
2019-04-06T05:12:52.194Z,1006.87
2019-04-06T05:13:52.012Z,1006.89
2019-04-06T05:14:52.113Z,1006.89
2019-04-06T05:15:51.951Z,1006.94
2019-04-06T05:16:51.926Z,1006.98
2019-04-06T05:17:51.895Z,1006.97
2019-04-06T05:18:51.858Z,1006.98
2019-04-06T05:19:51.828Z,1007.02
2019-04-06T05:20:51.797Z,1007.04
2019-04-06T05:21:51.766Z,1006.99
2019-04-06T05:22:51.737Z,1007.00
2019-04-06T05:23:51.847Z,1007.00
2019-04-06T05:24:51.817Z,1007.03
2019-04-06T05:25:51.650Z,1007.00
2019-04-06T05:26:51.660Z,1007.05
2019-04-06T05:27:52.969Z,1007.03
2019-04-06T05:28:51.557Z,1007.02
2019-04-06T05:29:51.524Z,1007.03
2019-04-06T05:30:51.496Z,1007.03
2019-04-06T05:31:51.462Z,1007.07
2019-04-06T05:32:51.549Z,1007.07
2019-04-06T05:33:51.456Z,1007.09
2019-04-06T05:34:51.373Z,1006.99
2019-04-06T05:35:51.345Z,1007.00
2019-04-06T05:36:51.439Z,1007.02
2019-04-06T05:37:51.283Z,1007.02
2019-04-06T05:38:51.256Z,1007.00
2019-04-06T05:39:51.227Z,1007.03
2019-04-06T05:40:51.195Z,1007.03
2019-04-06T05:41:51.219Z,1007.04
2019-04-06T05:42:51.135Z,1007.03
2019-04-06T05:43:51.111Z,1007.07
2019-04-06T05:44:51.077Z,1007.04
2019-04-06T05:45:51.048Z,1007.03
2019-04-06T05:46:51.020Z,1007.01
2019-04-06T05:47:50.989Z,1007.07
2019-04-06T05:48:50.960Z,1007.06
2019-04-06T05:49:50.932Z,1007.08
2019-04-06T05:50:50.903Z,1007.01
2019-04-06T05:51:50.880Z,1007.07
2019-04-06T05:52:50.845Z,1007.08
2019-04-06T05:53:50.951Z,1007.05
2019-04-06T05:54:50.911Z,1007.04
2019-04-06T05:55:50.759Z,1007.07
2019-04-06T05:56:50.730Z,1007.04
2019-04-06T05:58:01.965Z,1007.03
2019-04-06T05:58:50.841Z,1007.05
2019-04-06T05:59:50.650Z,1007.09
2019-04-06T06:00:50.617Z,1007.12
2019-04-06T06:01:50.591Z,1007.13
2019-04-06T06:02:50.703Z,1007.15
2019-04-06T06:03:50.538Z,1007.10
2019-04-06T06:04:50.668Z,1007.10
2019-04-06T06:05:50.479Z,1007.12
2019-04-06T06:06:50.454Z,1007.12
2019-04-06T06:07:50.423Z,1007.10
2019-04-06T06:08:50.397Z,1007.14
2019-04-06T06:09:50.367Z,1007.10
2019-04-06T06:10:50.339Z,1007.11
2019-04-06T06:11:50.352Z,1007.07
2019-04-06T06:12:50.283Z,1007.08
2019-04-06T06:13:50.259Z,1007.10
2019-04-06T06:14:50.234Z,1007.14
2019-04-06T06:15:50.204Z,1007.09
2019-04-06T06:16:50.202Z,1007.08
2019-04-06T06:17:50.151Z,1007.09
2019-04-06T06:18:50.123Z,1007.06
2019-04-06T06:19:50.098Z,1007.01
2019-04-06T06:20:50.070Z,1007.03
2019-04-06T06:21:50.043Z,1007.02
2019-04-06T06:22:50.088Z,1007.05
2019-04-06T06:23:49.991Z,1007.06
2019-04-06T06:24:49.964Z,1007.00
2019-04-06T06:25:49.939Z,1007.03
2019-04-06T06:26:49.914Z,1007.03
2019-04-06T06:27:49.891Z,1007.03
2019-04-06T06:28:49.861Z,1007.02
2019-04-06T06:29:49.871Z,1007.02
2019-04-06T06:30:49.809Z,1007.01
2019-04-06T06:31:49.784Z,1007.04
2019-04-06T06:32:49.757Z,1006.98
2019-04-06T06:33:49.931Z,1007.03
2019-04-06T06:34:49.705Z,1007.05
2019-04-06T06:35:49.693Z,1007.02
2019-04-06T06:36:49.834Z,1007.07
2019-04-06T06:37:49.631Z,1007.12
2019-04-06T06:38:49.606Z,1007.13
2019-04-06T06:39:49.584Z,1007.18
2019-04-06T06:40:49.559Z,1007.16
2019-04-06T06:41:49.728Z,1007.19
2019-04-06T06:42:49.508Z,1007.23
2019-04-06T06:43:49.482Z,1007.29
2019-04-06T06:44:49.462Z,1007.31
2019-04-06T06:45:49.433Z,1007.30
2019-04-06T06:46:49.408Z,1007.30
2019-04-06T06:47:49.384Z,1007.31
2019-04-06T06:48:49.430Z,1007.35
2019-04-06T06:49:49.337Z,1007.35
2019-04-06T06:50:49.313Z,1007.30
2019-04-06T06:51:49.482Z,1007.33
2019-04-06T06:52:49.264Z,1007.35
2019-04-06T06:53:49.240Z,1007.36
2019-04-06T06:54:49.219Z,1007.32
2019-04-06T06:55:49.191Z,1007.35
2019-04-06T06:56:49.176Z,1007.32
2019-04-06T06:57:49.143Z,1007.34
2019-04-06T06:58:49.162Z,1007.28
2019-04-06T06:59:49.097Z,1007.28
2019-04-06T07:00:49.075Z,1007.29
2019-04-06T07:01:49.182Z,1007.28
2019-04-06T07:02:49.027Z,1007.33
2019-04-06T07:03:49.007Z,1007.35
2019-04-06T07:04:48.983Z,1007.39
2019-04-06T07:05:48.961Z,1007.40
2019-04-06T07:06:48.939Z,1007.34
2019-04-06T07:07:48.920Z,1007.33
2019-04-06T07:08:49.040Z,1007.32
2019-04-06T07:09:48.891Z,1007.35
2019-04-06T07:10:48.856Z,1007.38
2019-04-06T07:11:48.828Z,1007.39
2019-04-06T07:12:48.812Z,1007.45
2019-04-06T07:13:48.878Z,1007.41
2019-04-06T07:14:48.768Z,1007.35
2019-04-06T07:15:48.740Z,1007.35
2019-04-06T07:16:48.800Z,1007.35
2019-04-06T07:17:48.702Z,1007.37
2019-04-06T07:18:48.675Z,1007.34
2019-04-06T07:19:48.655Z,1007.44
2019-04-06T07:20:48.634Z,1007.42
2019-04-06T07:21:48.614Z,1007.49
2019-04-06T07:22:48.733Z,1007.52
2019-04-06T07:23:48.574Z,1007.57
2019-04-06T07:24:48.551Z,1007.61
2019-04-06T07:25:57.667Z,1007.62
2019-04-06T07:26:48.512Z,1007.62
2019-04-06T07:27:48.489Z,1007.57
2019-04-06T07:28:48.470Z,1007.53
2019-04-06T07:29:48.451Z,1007.55
2019-04-06T07:30:48.432Z,1007.56
2019-04-06T07:31:48.411Z,1007.57
2019-04-06T07:32:48.389Z,1007.56
2019-04-06T07:33:48.369Z,1007.54
2019-04-06T07:34:48.350Z,1007.59
2019-04-06T07:35:48.330Z,1007.53
2019-04-06T07:36:48.310Z,1007.54
2019-04-06T07:37:48.291Z,1007.55
2019-04-06T07:38:48.271Z,1007.53
2019-04-06T07:39:48.253Z,1007.51
2019-04-06T07:40:48.230Z,1007.48
2019-04-06T07:41:48.396Z,1007.52
2019-04-06T07:42:48.193Z,1007.49
2019-04-06T07:43:48.216Z,1007.44
2019-04-06T07:44:48.153Z,1007.46
2019-04-06T07:45:48.136Z,1007.47
2019-04-06T07:46:48.326Z,1007.47
2019-04-06T07:47:48.099Z,1007.45
2019-04-06T07:48:48.078Z,1007.44
2019-04-06T07:49:48.061Z,1007.48
2019-04-06T07:50:48.043Z,1007.49
2019-04-06T07:51:48.076Z,1007.45
2019-04-06T07:52:48.004Z,1007.43
2019-04-06T07:53:48.191Z,1007.44
2019-04-06T07:54:47.968Z,1007.40
2019-04-06T07:55:47.950Z,1007.34
2019-04-06T07:56:47.932Z,1007.30
2019-04-06T07:57:47.913Z,1007.35
2019-04-06T07:58:49.963Z,1007.35
2019-04-06T07:59:47.915Z,1007.35
2019-04-06T08:00:48.165Z,1007.36
2019-04-06T08:01:48.712Z,1007.35
2019-04-06T08:02:47.824Z,1007.39
2019-04-06T08:03:48.052Z,1007.34
2019-04-06T08:04:47.789Z,1007.36
2019-04-06T08:05:47.898Z,1007.32
2019-04-06T08:06:47.752Z,1007.35
2019-04-06T08:07:47.735Z,1007.34
2019-04-06T08:08:47.834Z,1007.35
2019-04-06T08:09:47.698Z,1007.31
2019-04-06T08:10:47.678Z,1007.31
2019-04-06T08:11:47.803Z,1007.30
2019-04-06T08:12:47.652Z,1007.33
2019-04-06T08:13:47.621Z,1007.30
2019-04-06T08:14:47.603Z,1007.29
2019-04-06T08:15:47.582Z,1007.27
2019-04-06T08:16:47.642Z,1007.28
2019-04-06T08:17:47.543Z,1007.25
2019-04-06T08:18:47.736Z,1007.23
2019-04-06T08:19:47.504Z,1007.20
2019-04-06T08:20:47.484Z,1007.22
2019-04-06T08:21:47.731Z,1007.22
2019-04-06T08:22:47.448Z,1007.24
2019-04-06T08:23:47.429Z,1007.25
2019-04-06T08:24:47.409Z,1007.26
2019-04-06T08:25:47.447Z,1007.29
2019-04-06T08:26:47.372Z,1007.32
2019-04-06T08:27:47.355Z,1007.30
2019-04-06T08:28:59.146Z,1007.35
2019-04-06T08:29:47.319Z,1007.38
2019-04-06T08:30:47.303Z,1007.40
2019-04-06T08:31:47.289Z,1007.41
2019-04-06T08:32:47.549Z,1007.42
2019-04-06T08:33:47.253Z,1007.42
2019-04-06T08:34:47.234Z,1007.45
2019-04-06T08:35:47.217Z,1007.46
2019-04-06T08:36:47.200Z,1007.46
2019-04-06T08:37:47.282Z,1007.45
2019-04-06T08:38:47.173Z,1007.35
2019-04-06T08:39:47.184Z,1007.38
2019-04-06T08:40:47.133Z,1007.34
2019-04-06T08:41:47.115Z,1007.35
2019-04-06T08:42:47.105Z,1007.38
2019-04-06T08:43:47.084Z,1007.36
2019-04-06T08:44:47.066Z,1007.36
2019-04-06T08:45:47.108Z,1007.35
2019-04-06T08:46:47.036Z,1007.35
2019-04-06T08:47:47.061Z,1007.37
2019-04-06T08:48:47.004Z,1007.37
2019-04-06T08:49:46.994Z,1007.41
2019-04-06T08:50:46.971Z,1007.39
2019-04-06T08:51:46.954Z,1007.38
2019-04-06T08:52:46.936Z,1007.37
2019-04-06T08:53:46.920Z,1007.37
2019-04-06T08:54:46.904Z,1007.35
2019-04-06T08:55:46.890Z,1007.35
2019-04-06T08:56:46.871Z,1007.36
2019-04-06T08:57:46.857Z,1007.36
2019-04-06T08:58:46.863Z,1007.27
2019-04-06T08:59:46.949Z,1007.31
2019-04-06T09:00:46.817Z,1007.27
2019-04-06T09:01:46.789Z,1007.25
2019-04-06T09:02:46.776Z,1007.23
2019-04-06T09:03:46.795Z,1007.24
2019-04-06T09:04:46.749Z,1007.22
2019-04-06T09:05:46.858Z,1007.21
2019-04-06T09:06:46.712Z,1007.19
2019-04-06T09:07:46.937Z,1007.17
2019-04-06T09:08:46.679Z,1007.24
2019-04-06T09:09:46.663Z,1007.23
2019-04-06T09:10:46.648Z,1007.21
2019-04-06T09:11:46.631Z,1007.26
2019-04-06T09:12:46.616Z,1007.29
2019-04-06T09:13:46.600Z,1007.24
2019-04-06T09:14:46.586Z,1007.27
2019-04-06T09:15:46.569Z,1007.28
2019-04-06T09:16:46.723Z,1007.28
2019-04-06T09:17:46.537Z,1007.28
2019-04-06T09:18:48.687Z,1007.29
2019-04-06T09:19:46.556Z,1007.31
2019-04-06T09:20:46.489Z,1007.26
2019-04-06T09:21:46.498Z,1007.24
2019-04-06T09:22:46.462Z,1007.25
2019-04-06T09:23:46.448Z,1007.23
2019-04-06T09:24:46.429Z,1007.24
2019-04-06T09:25:46.415Z,1007.23
2019-04-06T09:26:48.081Z,1007.22
2019-04-06T09:27:46.429Z,1007.23
2019-04-06T09:28:46.369Z,1007.25
2019-04-06T09:29:46.426Z,1007.26
2019-04-06T09:30:46.353Z,1007.23
2019-04-06T09:31:46.324Z,1007.21
2019-04-06T09:32:46.308Z,1007.23
2019-04-06T09:33:46.574Z,1007.25
2019-04-06T09:34:46.277Z,1007.19
2019-04-06T09:35:46.261Z,1007.24
2019-04-06T09:36:46.262Z,1007.26
2019-04-06T09:37:46.236Z,1007.23
2019-04-06T09:38:46.439Z,1007.23
2019-04-06T09:39:46.200Z,1007.23
2019-04-06T09:40:46.352Z,1007.20
2019-04-06T09:41:46.168Z,1007.20
2019-04-06T09:42:46.383Z,1007.24
2019-04-06T09:43:46.138Z,1007.16
2019-04-06T09:44:46.119Z,1007.17
2019-04-06T09:45:46.209Z,1007.17
2019-04-06T09:46:46.090Z,1007.17
2019-04-06T09:47:46.074Z,1007.16
2019-04-06T09:48:46.058Z,1007.11
2019-04-06T09:49:46.052Z,1007.15
2019-04-06T09:50:46.213Z,1007.14
2019-04-06T09:51:46.014Z,1007.17
2019-04-06T09:52:45.994Z,1007.14
2019-04-06T09:53:46.049Z,1007.11
2019-04-06T09:54:45.964Z,1007.08
2019-04-06T09:55:46.134Z,1007.07
2019-04-06T09:56:45.931Z,1007.07
2019-04-06T09:57:45.917Z,1007.07
2019-04-06T09:58:45.903Z,1007.08
2019-04-06T09:59:48.219Z,1007.07
2019-04-06T10:00:45.878Z,1007.07
2019-04-06T10:01:46.000Z,1007.02
2019-04-06T10:02:45.838Z,1006.96
2019-04-06T10:03:45.823Z,1007.04
2019-04-06T10:04:45.808Z,1007.00
2019-04-06T10:05:45.794Z,1006.98
2019-04-06T10:06:45.776Z,1006.96
2019-04-06T10:07:45.763Z,1006.94
2019-04-06T10:08:45.745Z,1006.95
2019-04-06T10:09:45.730Z,1006.95
2019-04-06T10:10:45.785Z,1006.97
2019-04-06T10:11:45.720Z,1006.99
2019-04-06T10:12:45.682Z,1007.00
2019-04-06T10:13:45.669Z,1006.98
2019-04-06T10:14:45.652Z,1006.95
2019-04-06T10:15:45.770Z,1006.94
2019-04-06T10:16:45.715Z,1006.95
2019-04-06T10:17:45.604Z,1006.93
2019-04-06T10:18:45.777Z,1006.93
2019-04-06T10:19:45.574Z,1006.93
2019-04-06T10:20:45.554Z,1006.93
2019-04-06T10:21:45.541Z,1006.92
2019-04-06T10:22:45.525Z,1006.89
2019-04-06T10:23:45.509Z,1006.88
2019-04-06T10:24:45.494Z,1006.82
2019-04-06T10:25:45.484Z,1006.81
2019-04-06T10:26:45.461Z,1006.78
2019-04-06T10:27:45.706Z,1006.78
2019-04-06T10:28:45.431Z,1006.75
2019-04-06T10:29:48.934Z,1006.77
2019-04-06T10:30:45.399Z,1006.75
2019-04-06T10:31:45.384Z,1006.75
2019-04-06T10:32:45.372Z,1006.74
2019-04-06T10:33:45.353Z,1006.76
2019-04-06T10:34:45.337Z,1006.72
2019-04-06T10:35:45.322Z,1006.73
2019-04-06T10:36:45.305Z,1006.70
2019-04-06T10:37:45.289Z,1006.71
2019-04-06T10:38:45.274Z,1006.74
2019-04-06T10:39:45.260Z,1006.71
2019-04-06T10:40:45.241Z,1006.71
2019-04-06T10:41:45.226Z,1006.69
2019-04-06T10:42:45.430Z,1006.64
2019-04-06T10:43:45.195Z,1006.66
2019-04-06T10:44:45.407Z,1006.67
2019-04-06T10:45:45.370Z,1006.67
2019-04-06T10:46:45.212Z,1006.62
2019-04-06T10:47:45.139Z,1006.61
2019-04-06T10:48:45.178Z,1006.58
2019-04-06T10:49:45.106Z,1006.61
2019-04-06T10:50:45.089Z,1006.64
2019-04-06T10:51:45.073Z,1006.64
2019-04-06T10:52:45.071Z,1006.60
2019-04-06T10:53:45.127Z,1006.63
2019-04-06T10:54:45.029Z,1006.59
2019-04-06T10:55:45.017Z,1006.61
2019-04-06T10:56:44.997Z,1006.62
2019-04-06T10:57:44.983Z,1006.60
2019-04-06T10:58:44.969Z,1006.61
2019-04-06T10:59:45.110Z,1006.61
2019-04-06T11:00:44.937Z,1006.59
2019-04-06T11:01:45.263Z,1006.60
2019-04-06T11:02:44.910Z,1006.62
2019-04-06T11:03:44.896Z,1006.58
2019-04-06T11:04:44.879Z,1006.57
2019-04-06T11:05:44.866Z,1006.60
2019-04-06T11:06:44.848Z,1006.55
2019-04-06T11:07:45.089Z,1006.54
2019-04-06T11:08:44.818Z,1006.55
2019-04-06T11:09:44.802Z,1006.55
2019-04-06T11:10:44.786Z,1006.54
2019-04-06T11:11:44.769Z,1006.52
2019-04-06T11:12:44.754Z,1006.53
2019-04-06T11:13:44.994Z,1006.52
2019-04-06T11:14:44.722Z,1006.58
2019-04-06T11:15:44.710Z,1006.53
2019-04-06T11:16:47.352Z,1006.50
2019-04-06T11:17:44.675Z,1006.51
2019-04-06T11:18:44.659Z,1006.56
2019-04-06T11:19:44.695Z,1006.51
2019-04-06T11:20:44.809Z,1006.52
2019-04-06T11:21:44.612Z,1006.47
2019-04-06T11:22:44.641Z,1006.49
2019-04-06T11:23:44.579Z,1006.45
2019-04-06T11:24:44.562Z,1006.46
2019-04-06T11:25:44.547Z,1006.46
2019-04-06T11:26:44.531Z,1006.45
2019-04-06T11:27:44.515Z,1006.40
2019-04-06T11:28:44.500Z,1006.41
2019-04-06T11:29:44.484Z,1006.37
2019-04-06T11:30:44.471Z,1006.34
2019-04-06T11:31:44.833Z,1006.36
2019-04-06T11:32:44.436Z,1006.34
2019-04-06T11:33:44.421Z,1006.31
2019-04-06T11:34:44.406Z,1006.34
2019-04-06T11:35:44.443Z,1006.34
2019-04-06T11:36:44.381Z,1006.34
2019-04-06T11:37:44.454Z,1006.37
2019-04-06T11:38:44.342Z,1006.34
2019-04-06T11:39:44.327Z,1006.35
2019-04-06T11:40:44.311Z,1006.34
2019-04-06T11:41:44.396Z,1006.36
2019-04-06T11:42:44.277Z,1006.31
2019-04-06T11:43:44.264Z,1006.35
2019-04-06T11:44:44.247Z,1006.32
2019-04-06T11:45:44.232Z,1006.34
2019-04-06T11:46:44.441Z,1006.21
2019-04-06T11:47:44.433Z,1006.29
2019-04-06T11:48:45.744Z,1006.31
2019-04-06T11:49:44.174Z,1006.29
2019-04-06T11:50:44.154Z,1006.30
2019-04-06T11:51:44.137Z,1006.31
2019-04-06T11:52:44.119Z,1006.28
2019-04-06T11:53:44.489Z,1006.29
2019-04-06T11:54:44.090Z,1006.28
2019-04-06T11:55:44.949Z,1006.30
2019-04-06T11:56:44.057Z,1006.28
2019-04-06T11:57:44.040Z,1006.30
2019-04-06T11:58:44.026Z,1006.31
2019-04-06T11:59:44.011Z,1006.32
2019-04-06T12:00:43.994Z,1006.26
2019-04-06T12:01:43.977Z,1006.24
2019-04-06T12:02:43.962Z,1006.25
2019-04-06T12:03:44.103Z,1006.22
2019-04-06T12:04:43.929Z,1006.25